Time;durP1;ratioP1;P1;durP2;ratioP2;P2;SDS_P1;SDS_P2;PMS_P1;PMS_P2;Temp;Humidity;BMP_temperature;BMP_pressure;BME280_temperature;BME280_humidity;BME280_pressure;Samples;Min_cycle;Max_cycle;Signal;HPM_P1;HPM_P2
2022/12/18 00:00:41;;;;;;;10.32;6.30;;;4.40;75.70;;;;;;4975079;28;20045;-16
2022/12/18 00:03:07;;;;;;;11.93;7.05;;;4.40;76.00;;;;;;4974927;28;20054;-15
2022/12/18 00:05:33;;;;;;;12.43;6.95;;;4.40;75.90;;;;;;4974989;28;20043;-15
2022/12/18 00:07:59;;;;;;;11.00;6.40;;;4.30;75.70;;;;;;4975076;28;20082;-16
2022/12/18 00:10:26;;;;;;;11.77;6.95;;;4.30;75.70;;;;;;4973780;28;20084;-16
2022/12/18 00:12:52;;;;;;;12.35;7.32;;;4.20;75.80;;;;;;4975001;28;20046;-16
2022/12/18 00:15:19;;;;;;;12.98;7.20;;;4.20;76.20;;;;;;4974809;28;20507;-16
2022/12/18 00:17:44;;;;;;;11.80;7.00;;;4.20;75.80;;;;;;4973886;28;20027;-16
2022/12/18 00:20:11;;;;;;;10.95;6.72;;;4.20;76.00;;;;;;4975006;28;20120;-16
2022/12/18 00:22:37;;;;;;;12.57;6.38;;;4.20;76.10;;;;;;4974877;28;20030;-16
2022/12/18 00:25:03;;;;;;;13.52;7.43;;;4.10;76.00;;;;;;4974383;28;20475;-16
2022/12/18 00:27:29;;;;;;;11.80;6.35;;;4.10;75.80;;;;;;4974658;28;20077;-17
2022/12/18 00:29:55;;;;;;;12.18;6.18;;;4.10;75.90;;;;;;4974458;28;20035;-18
2022/12/18 00:32:21;;;;;;;11.52;6.10;;;4.10;76.10;;;;;;4974621;28;20117;-16
2022/12/18 00:34:47;;;;;;;11.75;6.70;;;4.10;76.30;;;;;;4974431;28;20027;-16
2022/12/18 00:37:13;;;;;;;12.00;6.65;;;4.10;76.10;;;;;;4974544;28;20027;-17
2022/12/18 00:39:38;;;;;;;11.63;7.28;;;4.00;76.10;;;;;;4974603;28;20029;-16
2022/12/18 00:44:49;;;;;;;14.38;7.30;;;4.00;75.80;;;;;;4974734;28;20042;-17
2022/12/18 00:47:15;;;;;;;13.23;7.50;;;4.00;75.70;;;;;;4974353;28;20125;-17
2022/12/18 00:49:41;;;;;;;12.93;7.30;;;4.00;75.90;;;;;;4974048;28;20106;-17
2022/12/18 00:52:07;;;;;;;12.95;7.60;;;3.90;75.80;;;;;;4974314;28;20153;-17
2022/12/18 00:54:33;;;;;;;12.90;7.35;;;3.90;75.70;;;;;;4974150;28;20108;-17
2022/12/18 00:56:59;;;;;;;11.68;6.55;;;3.90;75.80;;;;;;4973648;28;20030;-16
2022/12/18 00:59:25;;;;;;;11.90;6.60;;;3.80;75.90;;;;;;4973863;28;20026;-15
2022/12/18 01:01:51;;;;;;;11.52;7.20;;;3.80;76.10;;;;;;4974056;28;20031;-16
2022/12/18 01:04:17;;;;;;;15.07;6.90;;;3.70;76.00;;;;;;4973906;28;20058;-13
2022/12/18 01:06:43;;;;;;;12.05;6.97;;;3.70;76.10;;;;;;4974499;28;20033;-15
2022/12/18 01:09:09;;;;;;;10.88;6.70;;;3.60;76.20;;;;;;4973689;28;20077;-16
2022/12/18 01:11:35;;;;;;;13.70;6.85;;;3.60;76.30;;;;;;4973945;28;20122;-16
2022/12/18 01:14:01;;;;;;;11.63;6.60;;;3.50;76.50;;;;;;4974269;28;20085;-17
2022/12/18 01:16:27;;;;;;;11.75;6.97;;;3.60;76.40;;;;;;4974027;28;20097;-16
2022/12/18 01:18:54;;;;;;;10.43;6.55;;;3.60;76.50;;;;;;4973778;28;20450;-16
2022/12/18 01:21:21;;;;;;;10.82;6.07;;;3.60;76.30;;;;;;4974322;28;20046;-18
2022/12/18 01:23:51;;;;;;;11.98;7.03;;;3.60;76.30;;;;;;4973833;28;20026;-15
2022/12/18 01:26:17;;;;;;;11.25;6.78;;;3.50;75.80;;;;;;4973889;28;20480;-15
2022/12/18 01:28:44;;;;;;;12.45;7.00;;;3.40;75.80;;;;;;4972448;28;20042;-16
2022/12/18 01:31:24;;;;;;;10.25;6.25;;;3.50;76.00;;;;;;4973554;28;20480;-15
2022/12/18 01:33:51;;;;;;;10.23;6.00;;;3.40;76.20;;;;;;4973834;28;20111;-16
2022/12/18 01:36:20;;;;;;;12.27;6.80;;;3.30;76.40;;;;;;4973813;28;20023;-16
2022/12/18 01:38:47;;;;;;;10.80;6.30;;;3.30;76.40;;;;;;4973614;28;20023;-16
2022/12/18 01:41:15;;;;;;;11.98;6.85;;;3.20;76.50;;;;;;4972514;28;20537;-16
2022/12/18 01:43:45;;;;;;;12.98;7.22;;;3.20;76.60;;;;;;4973641;28;20501;-16
2022/12/18 01:46:12;;;;;;;11.77;6.35;;;3.10;76.60;;;;;;4974210;28;20039;-15
2022/12/18 01:48:39;;;;;;;12.15;6.78;;;3.10;76.80;;;;;;4973653;28;20042;-16
2022/12/18 01:51:07;;;;;;;12.02;6.85;;;3.10;76.80;;;;;;4973524;28;20030;-15
2022/12/18 01:53:33;;;;;;;11.77;6.28;;;3.00;76.80;;;;;;4973735;28;20031;-15
2022/12/18 01:55:59;;;;;;;12.45;6.40;;;3.10;76.90;;;;;;4973656;28;20034;-15
2022/12/18 01:58:56;;;;;;;9.68;5.72;;;3.00;76.90;;;;;;4973587;28;20023;-16
2022/12/18 02:01:23;;;;;;;12.43;6.85;;;2.90;77.10;;;;;;4974017;28;20122;-17
2022/12/18 02:03:49;;;;;;;11.55;6.38;;;2.90;77.00;;;;;;4973880;28;20023;-15
2022/12/18 02:06:39;;;;;;;13.35;7.00;;;2.90;77.10;;;;;;4973292;28;20043;-14
2022/12/18 02:09:28;;;;;;;12.65;6.75;;;2.90;77.20;;;;;;4975984;28;20475;-16
2022/12/18 02:12:13;;;;;;;12.07;6.82;;;2.80;77.20;;;;;;4977615;28;20046;-16
2022/12/18 02:14:53;;;;;;;10.65;6.18;;;2.80;77.30;;;;;;4977247;28;20060;-15
2022/12/18 02:17:27;;;;;;;13.18;6.72;;;2.80;77.20;;;;;;4977446;28;20027;-16
2022/12/18 02:19:59;;;;;;;12.52;6.40;;;2.80;77.20;;;;;;4977885;28;20031;-15
2022/12/18 02:22:34;;;;;;;14.27;7.03;;;2.80;77.30;;;;;;4976930;28;20027;-12
2022/12/18 02:25:17;;;;;;;12.35;6.60;;;2.80;77.30;;;;;;4976704;28;20054;-15
2022/12/18 02:27:46;;;;;;;12.25;7.10;;;2.70;77.30;;;;;;4977005;28;20086;-15
2022/12/18 02:30:13;;;;;;;12.23;6.10;;;2.70;77.30;;;;;;4977081;28;20046;-16
2022/12/18 02:32:47;;;;;;;13.43;7.03;;;2.70;77.30;;;;;;4976834;28;20039;-15
2022/12/18 02:35:17;;;;;;;11.90;6.72;;;2.60;77.20;;;;;;4976942;28;20515;-16
2022/12/18 02:37:45;;;;;;;10.88;6.22;;;2.60;77.30;;;;;;4977046;28;20034;-16
2022/12/18 02:40:13;;;;;;;10.95;6.20;;;2.60;77.50;;;;;;4976672;28;20038;-16
2022/12/18 02:42:39;;;;;;;12.70;6.60;;;2.50;77.60;;;;;;4976630;28;20030;-15
2022/12/18 02:45:06;;;;;;;9.85;6.38;;;2.50;77.70;;;;;;4976609;28;20026;-17
2022/12/18 02:47:36;;;;;;;10.02;5.63;;;2.50;77.70;;;;;;4976745;28;20031;-13
2022/12/18 02:50:02;;;;;;;10.75;5.97;;;2.60;77.70;;;;;;4976473;28;20485;-17
2022/12/18 02:53:02;;;;;;;11.23;6.43;;;2.50;77.60;;;;;;4976849;28;20035;-15
2022/12/18 02:56:15;;;;;;;10.63;6.20;;;2.60;77.60;;;;;;4976377;28;20483;-17
2022/12/18 02:59:09;;;;;;;11.18;6.53;;;2.60;77.60;;;;;;4916831;29;20059;-11
2022/12/18 03:01:54;;;;;;;12.13;6.30;;;2.60;77.50;;;;;;4896606;29;20046;-14
2022/12/18 03:04:27;;;;;;;;;;;2.60;77.50;;;;;;4917161;29;20515;-14
2022/12/18 03:06:57;;;;;;;12.07;6.80;;;2.60;77.40;;;;;;4916793;29;19990;-16
2022/12/18 03:09:36;;;;;;;9.18;5.50;;;2.60;77.40;;;;;;4916702;29;20070;-16
2022/12/18 03:12:24;;;;;;;12.85;6.72;;;2.60;77.40;;;;;;4916517;29;20452;-13
2022/12/18 03:15:12;;;;;;;8.90;5.30;;;2.60;77.30;;;;;;4916600;29;20139;-17
2022/12/18 03:17:43;;;;;;;14.57;6.30;;;2.60;77.30;;;;;;4916548;29;20032;-14
2022/12/18 03:20:19;;;;;;;10.50;5.53;;;2.60;77.30;;;;;;4916046;29;20111;-16
2022/12/18 03:22:51;;;;;;;11.20;6.13;;;2.60;77.30;;;;;;4916541;29;20539;-16
2022/12/18 03:25:19;;;;;;;11.07;5.97;;;2.60;77.30;;;;;;4916255;29;20047;-15
2022/12/18 03:27:51;;;;;;;9.95;5.00;;;2.60;77.30;;;;;;4916970;29;20053;-16
2022/12/18 03:30:18;;;;;;;12.50;6.47;;;2.60;77.30;;;;;;4953530;29;20126;-16
2022/12/18 03:33:07;;;;;;;11.32;5.82;;;2.50;77.20;;;;;;4956496;28;20043;-14
2022/12/18 03:35:37;;;;;;;11.77;6.45;;;2.50;77.30;;;;;;4956475;29;20387;-17
2022/12/18 03:38:03;;;;;;;13.52;6.45;;;2.50;77.10;;;;;;4956420;28;20066;-15
2022/12/18 03:40:43;;;;;;;10.63;5.97;;;2.50;77.00;;;;;;4956487;29;20051;-15
2022/12/18 03:43:31;;;;;;;10.75;5.95;;;2.50;77.10;;;;;;4956097;28;20116;-16
2022/12/18 03:46:28;;;;;;;12.07;6.00;;;2.50;77.20;;;;;;4956150;28;20037;-14
2022/12/18 03:49:14;;;;;;;8.90;5.60;;;2.40;77.20;;;;;;4953419;29;20054;-17
2022/12/18 03:52:12;;;;;;;11.68;6.20;;;2.40;77.10;;;;;;4956135;28;20110;-16
2022/12/18 03:54:40;;;;;;;13.02;6.68;;;2.40;77.20;;;;;;4916287;29;20628;-16
2022/12/18 03:57:22;;;;;;;10.75;6.38;;;2.40;77.10;;;;;;4915647;29;20036;-16
2022/12/18 03:59:54;;;;;;;10.82;5.93;;;2.30;77.30;;;;;;4915828;29;20075;-15
2022/12/18 04:02:23;;;;;;;11.40;6.45;;;2.30;77.20;;;;;;4915827;29;20075;-15
2022/12/18 04:04:56;;;;;;;11.32;6.50;;;2.40;77.40;;;;;;4915161;29;20055;-15
2022/12/18 04:07:23;;;;;;;10.15;5.30;;;2.30;77.30;;;;;;4916481;29;20044;-15
2022/12/18 04:09:52;;;;;;;12.63;6.68;;;2.30;77.30;;;;;;4915426;29;20503;-17
2022/12/18 04:12:18;;;;;;;9.90;5.63;;;2.30;77.30;;;;;;4915589;29;20061;-17
2022/12/18 04:14:44;;;;;;;12.30;6.85;;;2.20;77.20;;;;;;4915395;29;20032;-16
2022/12/18 04:17:10;;;;;;;13.63;7.05;;;2.20;77.20;;;;;;4915197;29;20160;-16
2022/12/18 04:19:36;;;;;;;10.60;5.80;;;2.20;77.30;;;;;;4915762;29;20183;-17
2022/12/18 04:22:02;;;;;;;12.70;6.68;;;2.10;77.40;;;;;;4915490;29;20047;-16
2022/12/18 04:24:28;;;;;;;13.27;6.90;;;2.10;77.50;;;;;;4915236;29;20047;-15
2022/12/18 04:26:54;;;;;;;13.23;7.22;;;2.00;77.50;;;;;;4915246;29;20032;-17
2022/12/18 04:29:20;;;;;;;12.10;6.68;;;2.00;77.60;;;;;;4915166;29;20504;-16
2022/12/18 04:31:46;;;;;;;12.68;6.43;;;1.90;77.70;;;;;;4947939;28;20154;-16
2022/12/18 04:34:12;;;;;;;13.43;7.03;;;1.90;77.70;;;;;;4955403;28;20148;-16
2022/12/18 04:36:38;;;;;;;12.30;6.78;;;1.90;77.80;;;;;;4955600;28;20027;-16
2022/12/18 04:39:04;;;;;;;11.10;6.35;;;1.80;77.90;;;;;;4955357;28;20432;-17
2022/12/18 04:41:30;;;;;;;12.07;6.65;;;1.80;78.00;;;;;;4955219;29;20387;-15
2022/12/18 04:43:56;;;;;;;13.85;6.70;;;1.80;78.00;;;;;;4953958;28;20027;-16
2022/12/18 04:46:22;;;;;;;11.38;6.53;;;1.90;78.10;;;;;;4955163;28;20110;-15
2022/12/18 04:48:48;;;;;;;12.38;6.60;;;1.90;78.00;;;;;;4954830;28;20044;-16
2022/12/18 04:51:14;;;;;;;12.43;7.00;;;1.80;78.00;;;;;;4955091;28;20023;-15
2022/12/18 04:53:40;;;;;;;14.45;7.50;;;1.90;78.00;;;;;;5025358;23;20030;-16
2022/12/18 04:56:12;;;;;;;13.18;7.70;;;1.90;78.00;;;;;;4974463;28;20466;-18
2022/12/18 04:58:40;;;;;;;12.05;6.90;;;1.90;78.00;;;;;;4974234;28;20031;-19
2022/12/18 05:01:07;;;;;;;12.60;6.65;;;1.90;78.00;;;;;;4973818;28;20106;-20
2022/12/18 05:03:34;;;;;;;12.35;6.82;;;1.90;78.00;;;;;;4974099;28;20031;-19
2022/12/18 05:06:00;;;;;;;12.82;7.20;;;1.90;78.00;;;;;;4973992;28;20054;-18
2022/12/18 05:08:26;;;;;;;12.93;6.53;;;2.00;77.90;;;;;;4973755;28;20030;-18
2022/12/18 05:11:10;;;;;;;11.18;6.63;;;2.00;77.70;;;;;;4973828;28;20023;-18
2022/12/18 05:13:36;;;;;;;11.43;7.63;;;2.00;77.70;;;;;;4972730;28;20086;-19
2022/12/18 05:16:02;;;;;;;14.07;7.40;;;2.00;77.50;;;;;;4974578;28;20390;-18
2022/12/18 05:18:28;;;;;;;11.73;6.00;;;2.00;77.50;;;;;;4973694;28;20027;-19
2022/12/18 05:20:55;;;;;;;12.77;6.72;;;2.00;77.50;;;;;;5014205;23;20055;-15
2022/12/18 05:23:22;;;;;;;13.80;7.05;;;2.00;77.50;;;;;;4935621;29;20028;-14
2022/12/18 05:25:59;;;;;;;15.48;7.22;;;2.00;77.60;;;;;;4935790;29;20027;-14
2022/12/18 05:28:27;;;;;;;12.50;6.60;;;2.00;77.60;;;;;;4935545;29;20123;-12
2022/12/18 05:30:56;;;;;;;13.43;7.25;;;2.00;77.60;;;;;;4935583;29;20027;-13
2022/12/18 05:33:24;;;;;;;14.85;7.07;;;2.00;77.60;;;;;;4935350;29;20032;-16
2022/12/18 05:35:54;;;;;;;12.85;6.93;;;2.00;77.60;;;;;;4934215;29;20210;-17
2022/12/18 05:38:21;;;;;;;11.80;6.65;;;2.00;77.60;;;;;;4934148;29;20028;-14
2022/12/18 05:40:49;;;;;;;10.68;6.22;;;2.00;77.60;;;;;;4935031;29;20027;-11
2022/12/18 05:43:15;;;;;;;12.45;6.57;;;2.10;77.70;;;;;;4937659;29;20111;-16
2022/12/18 05:45:42;;;;;;;12.77;7.05;;;2.10;77.70;;;;;;4937970;29;20127;-12
2022/12/18 05:48:08;;;;;;;16.55;8.18;;;2.10;77.50;;;;;;4939289;29;20079;-13
2022/12/18 05:50:36;;;;;;;15.30;8.38;;;2.00;77.50;;;;;;4938983;29;20507;-16
2022/12/18 05:53:03;;;;;;;12.80;6.95;;;2.00;77.50;;;;;;4938978;29;20035;-12
2022/12/18 05:55:32;;;;;;;14.48;6.93;;;2.00;77.60;;;;;;4938979;29;20391;-14
2022/12/18 05:57:58;;;;;;;14.20;7.65;;;2.00;77.70;;;;;;4939191;29;20028;-16
2022/12/18 06:00:24;;;;;;;15.15;8.10;;;2.00;77.70;;;;;;4938915;29;20032;-15
2022/12/18 06:02:51;;;;;;;13.02;7.38;;;1.90;77.70;;;;;;4938830;29;20035;-16
2022/12/18 06:05:16;;;;;;;11.90;6.25;;;1.90;77.70;;;;;;4939015;29;20091;-16
2022/12/18 06:07:42;;;;;;;11.85;7.00;;;1.90;77.80;;;;;;4939159;29;20048;-16
2022/12/18 06:10:08;;;;;;;11.82;6.65;;;1.90;77.90;;;;;;4938752;29;20063;-16
2022/12/18 06:12:34;;;;;;;13.50;7.47;;;1.90;78.00;;;;;;4938879;29;20483;-16
2022/12/18 06:15:01;;;;;;;12.95;7.55;;;1.90;78.10;;;;;;4938895;29;20038;-15
2022/12/18 06:17:30;;;;;;;13.85;7.55;;;1.90;78.10;;;;;;4938962;29;20035;-17
2022/12/18 06:19:56;;;;;;;13.38;7.82;;;1.90;78.00;;;;;;4938611;29;20042;-16
2022/12/18 06:22:22;;;;;;;13.90;6.78;;;1.90;77.90;;;;;;4938286;29;20083;-15
2022/12/18 06:24:48;;;;;;;13.73;7.45;;;1.90;78.00;;;;;;4938291;29;20372;-17
2022/12/18 06:27:14;;;;;;;13.05;7.35;;;1.90;78.00;;;;;;4938676;29;20042;-15
2022/12/18 06:29:40;;;;;;;14.77;7.22;;;1.90;77.90;;;;;;4938455;29;20480;-16
2022/12/18 06:32:06;;;;;;;13.40;7.55;;;1.90;78.00;;;;;;4938661;29;20042;-15
2022/12/18 06:34:33;;;;;;;15.75;7.65;;;2.00;78.00;;;;;;4938341;29;20499;-17
2022/12/18 06:36:59;;;;;;;14.75;7.75;;;2.00;77.90;;;;;;4938378;29;20027;-17
2022/12/18 06:39:28;;;;;;;16.80;8.35;;;2.00;77.80;;;;;;4938692;29;20078;-17
2022/12/18 06:41:54;;;;;;;15.32;7.85;;;2.00;77.80;;;;;;4938443;29;20034;-16
2022/12/18 06:44:20;;;;;;;14.60;8.15;;;2.00;77.80;;;;;;4938170;29;20395;-18
2022/12/18 06:46:46;;;;;;;11.80;7.18;;;2.00;77.80;;;;;;4938018;29;20095;-17
2022/12/18 06:49:12;;;;;;;12.63;7.13;;;2.00;77.80;;;;;;4938000;29;20023;-16
2022/12/18 06:51:38;;;;;;;13.23;6.97;;;2.10;77.80;;;;;;4938305;29;20039;-17
2022/12/18 06:54:04;;;;;;;14.80;7.35;;;2.10;77.70;;;;;;4936321;29;20035;-17
2022/12/18 06:56:30;;;;;;;13.73;7.57;;;2.00;77.70;;;;;;4937889;29;20100;-17
2022/12/18 06:58:57;;;;;;;14.32;8.05;;;2.00;77.80;;;;;;4937753;29;20168;-16
2022/12/18 07:01:22;;;;;;;12.90;7.35;;;1.90;77.90;;;;;;4937867;29;20571;-17
2022/12/18 07:03:55;;;;;;;14.20;7.20;;;1.90;78.00;;;;;;4938264;29;20119;-17
2022/12/18 07:06:23;;;;;;;14.07;7.13;;;2.00;78.00;;;;;;4937991;29;20055;-13
2022/12/18 07:08:50;;;;;;;16.73;8.48;;;2.00;77.90;;;;;;4937693;29;20054;-15
2022/12/18 07:11:17;;;;;;;16.42;9.05;;;1.90;78.00;;;;;;4937972;29;20039;-17
2022/12/18 07:13:44;;;;;;;15.68;8.23;;;1.90;78.00;;;;;;4937878;29;20423;-16
2022/12/18 07:16:15;;;;;;;18.13;8.40;;;2.00;78.00;;;;;;4938049;29;20040;-16
2022/12/18 07:18:41;;;;;;;20.10;10.73;;;2.10;77.90;;;;;;4937705;29;20034;-13
2022/12/18 07:21:09;;;;;;;17.88;9.55;;;2.10;77.90;;;;;;4937214;29;20052;-15
2022/12/18 07:23:35;;;;;;;14.98;8.75;;;2.20;77.80;;;;;;4937437;29;20118;-16
2022/12/18 07:26:03;;;;;;;14.75;8.50;;;2.20;77.70;;;;;;4937713;29;20028;-17
2022/12/18 07:28:29;;;;;;;14.63;7.97;;;2.30;77.70;;;;;;4937610;29;20039;-17
2022/12/18 07:30:55;;;;;;;16.40;8.90;;;2.30;77.60;;;;;;4937430;29;20036;-17
2022/12/18 07:33:21;;;;;;;15.90;9.00;;;2.40;77.60;;;;;;4937282;29;20031;-16
2022/12/18 07:35:47;;;;;;;18.83;9.48;;;2.40;77.60;;;;;;4937439;29;20114;-17
2022/12/18 07:38:13;;;;;;;15.95;8.30;;;2.50;77.50;;;;;;4937184;29;20440;-16
2022/12/18 07:40:39;;;;;;;15.60;8.02;;;2.60;77.30;;;;;;4937084;29;20027;-16
2022/12/18 07:43:05;;;;;;;16.48;8.82;;;2.70;77.00;;;;;;4937247;29;20019;-16
2022/12/18 07:45:31;;;;;;;13.90;8.05;;;2.80;76.90;;;;;;4937271;29;20392;-18
2022/12/18 07:47:57;;;;;;;14.55;8.23;;;2.90;76.80;;;;;;4936984;29;20263;-16
2022/12/18 07:50:23;;;;;;;15.38;8.45;;;2.90;76.80;;;;;;4937234;29;20051;-15
2022/12/18 07:52:49;;;;;;;16.75;9.57;;;3.00;76.60;;;;;;4936926;29;20040;-17
2022/12/18 07:55:15;;;;;;;16.83;8.38;;;3.10;76.50;;;;;;4936819;29;20514;-16
2022/12/18 07:57:41;;;;;;;16.75;8.20;;;3.10;76.50;;;;;;4936960;29;20123;-15
2022/12/18 08:00:08;;;;;;;21.30;8.48;;;3.20;76.10;;;;;;4936925;29;20106;-16
2022/12/18 08:02:34;;;;;;;15.20;8.38;;;3.30;76.10;;;;;;4936952;29;20038;-17
2022/12/18 08:05:00;;;;;;;16.27;8.93;;;3.30;75.80;;;;;;4936427;29;20028;-16
2022/12/18 08:07:25;;;;;;;15.00;8.80;;;3.40;75.70;;;;;;4936418;29;20027;-15
2022/12/18 08:09:51;;;;;;;14.60;8.40;;;3.50;75.80;;;;;;4936850;29;20099;-16
2022/12/18 08:12:19;;;;;;;15.57;8.43;;;3.60;75.10;;;;;;4935523;29;20059;-16
2022/12/18 08:14:44;;;;;;;14.23;8.55;;;3.70;75.50;;;;;;4936471;29;20369;-16
2022/12/18 08:17:10;;;;;;;15.07;8.23;;;3.80;74.80;;;;;;4936274;29;20066;-17
2022/12/18 08:19:36;;;;;;;16.77;9.35;;;3.90;74.30;;;;;;4935027;29;20042;-17
2022/12/18 08:22:02;;;;;;;16.92;8.68;;;3.90;74.50;;;;;;4936110;29;20059;-15
2022/12/18 08:24:28;;;;;;;16.25;8.90;;;4.00;74.70;;;;;;4936313;29;20491;-16
2022/12/18 08:26:54;;;;;;;15.20;8.63;;;4.20;74.20;;;;;;4936030;29;20035;-15
2022/12/18 08:29:20;;;;;;;15.27;9.20;;;4.30;74.50;;;;;;4936171;29;20027;-17
2022/12/18 08:31:46;;;;;;;16.38;9.18;;;4.40;74.20;;;;;;4936285;29;20070;-16
2022/12/18 08:34:12;;;;;;;16.70;8.85;;;4.60;73.90;;;;;;4934937;29;20035;-16
2022/12/18 08:36:38;;;;;;;15.35;8.65;;;4.60;73.10;;;;;;4935948;29;20031;-15
2022/12/18 08:39:03;;;;;;;14.15;8.15;;;4.80;73.80;;;;;;4935875;29;20136;-15
2022/12/18 08:41:29;;;;;;;14.73;8.05;;;4.90;73.20;;;;;;4936543;29;20115;-12
2022/12/18 08:46:42;;;;;;;14.93;8.50;;;5.30;72.50;;;;;;4936329;29;20538;-14
2022/12/18 08:49:09;;;;;;;18.75;9.88;;;5.40;72.70;;;;;;4935662;29;20062;-16
2022/12/18 08:51:35;;;;;;;15.32;8.52;;;5.60;72.30;;;;;;4936066;29;20032;-13
2022/12/18 08:54:01;;;;;;;20.20;10.38;;;5.80;71.20;;;;;;4935802;29;20056;-13
2022/12/18 08:56:28;;;;;;;16.65;8.68;;;6.00;69.30;;;;;;4936106;29;20078;-13
2022/12/18 08:58:54;;;;;;;18.83;9.88;;;6.10;69.20;;;;;;4935936;29;20071;-15
2022/12/18 09:01:21;;;;;;;16.88;9.00;;;6.30;70.40;;;;;;4935749;29;20476;-15
2022/12/18 09:03:47;;;;;;;20.85;9.65;;;6.50;69.70;;;;;;4935654;29;20061;-14
2022/12/18 09:06:15;;;;;;;19.45;10.15;;;6.70;69.80;;;;;;4935603;29;20040;-17
2022/12/18 09:08:43;;;;;;;16.90;9.70;;;6.80;68.00;;;;;;4935685;29;20027;-15
2022/12/18 09:11:15;;;;;;;14.40;9.05;;;6.90;68.00;;;;;;4935676;29;20459;-15
2022/12/18 09:13:41;;;;;;;16.30;9.25;;;7.10;67.30;;;;;;4936324;29;20028;-16
2022/12/18 09:16:07;;;;;;;17.83;8.68;;;7.10;68.40;;;;;;4935687;29;20082;-15
2022/12/18 09:18:33;;;;;;;15.05;8.52;;;7.00;66.60;;;;;;4935092;29;20436;-17
2022/12/18 09:20:59;;;;;;;17.52;9.13;;;6.90;68.10;;;;;;4934955;29;20186;-14
2022/12/18 09:23:25;;;;;;;19.02;9.85;;;7.00;68.90;;;;;;4935816;29;20079;-13
2022/12/18 09:25:50;;;;;;;19.88;10.63;;;7.10;68.30;;;;;;4935858;29;20111;-16
2022/12/18 09:28:19;;;;;;;18.77;10.65;;;7.30;67.60;;;;;;4935376;29;20046;-15
2022/12/18 09:30:48;;;;;;;17.73;10.43;;;7.40;67.50;;;;;;4935398;29;20043;-12
2022/12/18 09:33:15;;;;;;;16.85;9.80;;;7.60;69.30;;;;;;4935862;29;20118;-16
2022/12/18 09:35:43;;;;;;;17.05;9.95;;;7.80;64.70;;;;;;4935218;29;20368;-14
2022/12/18 09:38:12;;;;;;;16.40;8.75;;;7.90;68.20;;;;;;4935294;29;20545;-16
2022/12/18 09:41:06;;;;;;;12.60;8.20;;;8.10;68.30;;;;;;4935385;29;20036;-16
2022/12/18 09:43:52;;;;;;;13.25;7.70;;;8.30;62.70;;;;;;4858980;29;20124;-15
2022/12/18 09:46:34;;;;;;;12.18;7.20;;;8.40;66.30;;;;;;4858163;29;20041;-13
2022/12/18 09:49:05;;;;;;;14.05;7.75;;;8.50;60.80;;;;;;4858141;29;20034;-14
2022/12/18 09:51:48;;;;;;;12.70;7.20;;;8.60;63.90;;;;;;4858157;29;20037;-14
2022/12/18 09:54:20;;;;;;;15.45;7.70;;;8.60;59.00;;;;;;4858200;29;20058;-14
2022/12/18 09:56:46;;;;;;;14.52;7.97;;;8.50;59.90;;;;;;4858114;29;20025;-16
2022/12/18 09:59:25;;;;;;;12.32;7.40;;;8.40;60.30;;;;;;4857951;29;20379;-15
2022/12/18 10:01:51;;;;;;;12.13;7.25;;;8.40;59.40;;;;;;4842870;29;20052;-16
2022/12/18 10:04:17;;;;;;;14.80;7.75;;;8.50;60.10;;;;;;4858218;29;20059;-15
2022/12/18 10:07:06;;;;;;;13.63;7.53;;;8.60;61.40;;;;;;4857980;29;20046;-14
2022/12/18 10:10:05;;;;;;;11.45;6.65;;;8.70;58.80;;;;;;4857977;29;20599;-13
2022/12/18 10:12:38;;;;;;;14.95;7.88;;;8.70;57.80;;;;;;4821358;29;20034;-13
2022/12/18 10:15:14;;;;;;;11.52;7.47;;;8.70;59.10;;;;;;4821198;29;20240;-15
2022/12/18 10:17:58;;;;;;;13.23;8.15;;;8.70;58.20;;;;;;4821375;29;20050;-15
2022/12/18 10:20:46;;;;;;;15.47;9.00;;;8.90;60.50;;;;;;4851078;29;20125;-14
2022/12/18 10:23:45;;;;;;;13.93;8.27;;;9.10;60.40;;;;;;4876540;29;20080;-15
2022/12/18 10:26:14;;;;;;;14.85;9.05;;;9.40;60.60;;;;;;4876427;29;20374;-15
2022/12/18 10:28:41;;;;;;;14.77;9.10;;;9.60;60.10;;;;;;4876888;29;20037;-18
2022/12/18 10:31:18;;;;;;;12.35;7.78;;;9.70;59.40;;;;;;4879560;29;20064;-17
2022/12/18 10:33:44;;;;;;;12.57;7.82;;;9.60;56.70;;;;;;4864655;29;20172;-16
2022/12/18 10:36:10;;;;;;;14.40;8.90;;;9.40;56.40;;;;;;4879630;29;20064;-16
2022/12/18 10:38:36;;;;;;;15.13;8.93;;;9.10;58.70;;;;;;4879957;29;20549;-17
2022/12/18 10:41:04;;;;;;;14.60;8.68;;;8.90;55.70;;;;;;4879531;29;20089;-13
2022/12/18 10:43:38;;;;;;;15.00;8.35;;;8.70;59.30;;;;;;4879583;29;20040;-11
2022/12/18 10:46:10;;;;;;;12.05;7.53;;;8.60;59.90;;;;;;4879597;29;20040;-14
2022/12/18 10:48:39;;;;;;;12.30;7.80;;;8.50;59.80;;;;;;4920962;29;20555;-13
2022/12/18 10:51:07;;;;;;;13.07;7.57;;;8.60;61.20;;;;;;4938083;29;20067;-14
2022/12/18 10:53:36;;;;;;;13.52;8.70;;;8.80;61.20;;;;;;4938126;29;20042;-14
2022/12/18 10:56:04;;;;;;;12.73;7.32;;;9.10;59.00;;;;;;4937920;29;20098;-13
2022/12/18 10:58:37;;;;;;;12.00;7.18;;;9.30;58.40;;;;;;4937922;29;20027;-13
2022/12/18 11:01:05;;;;;;;15.07;8.43;;;9.40;59.30;;;;;;4937799;29;20020;-11
2022/12/18 11:03:50;;;;;;;12.43;7.90;;;9.30;56.40;;;;;;4937848;29;20439;-16
2022/12/18 11:06:20;;;;;;;14.32;7.78;;;9.20;58.00;;;;;;4937657;29;20035;-15
2022/12/18 11:09:03;;;;;;;12.57;7.28;;;9.20;59.30;;;;;;4937891;29;20047;-14
2022/12/18 11:11:30;;;;;;;12.35;7.75;;;9.20;59.10;;;;;;4938033;29;20060;-16
2022/12/18 11:14:02;;;;;;;13.20;8.32;;;9.30;57.40;;;;;;4937644;29;20035;-17
2022/12/18 11:16:32;;;;;;;12.10;7.50;;;9.50;56.80;;;;;;4937754;29;20035;-16
2022/12/18 11:19:14;;;;;;;14.02;8.68;;;9.60;59.00;;;;;;4937680;29;20214;-16
2022/12/18 11:21:41;;;;;;;11.93;7.43;;;9.80;57.20;;;;;;4937606;29;20063;-17
2022/12/18 11:24:21;;;;;;;13.63;8.52;;;9.90;57.10;;;;;;4937434;29;20024;-17
2022/12/18 11:26:47;;;;;;;17.27;9.80;;;9.90;57.70;;;;;;4937719;29;20050;-16
2022/12/18 11:29:22;;;;;;;16.20;9.35;;;10.00;55.60;;;;;;4935918;29;20392;-15
2022/12/18 11:31:48;;;;;;;14.65;9.25;;;10.20;56.80;;;;;;4937330;29;20551;-15
2022/12/18 11:34:32;;;;;;;15.02;8.57;;;10.50;55.10;;;;;;4937484;29;20027;-14
2022/12/18 11:36:59;;;;;;;;;;;10.80;54.00;;;;;;4937485;29;20534;-11
2022/12/18 11:39:31;;;;;;;14.48;8.50;;;11.00;52.20;;;;;;4937408;29;19907;-17
2022/12/18 11:42:11;;;;;;;13.30;7.68;;;11.20;55.00;;;;;;4936902;29;20034;-14
2022/12/18 11:44:43;;;;;;;13.63;7.85;;;11.40;54.70;;;;;;4937125;29;20036;-16
2022/12/18 11:47:31;;;;;;;13.43;7.57;;;11.70;55.50;;;;;;4935565;29;20042;-16
2022/12/18 11:50:01;;;;;;;13.65;8.57;;;12.00;54.00;;;;;;4937009;29;20039;-17
2022/12/18 11:52:37;;;;;;;13.32;7.32;;;12.20;52.70;;;;;;4936826;29;20054;-16
2022/12/18 11:55:23;;;;;;;13.65;8.32;;;12.40;53.60;;;;;;4936671;29;20079;-15
2022/12/18 11:58:01;;;;;;;10.93;6.60;;;12.40;52.00;;;;;;4937025;29;20456;-14
2022/12/18 12:00:26;;;;;;;12.50;8.15;;;12.50;54.30;;;;;;4936764;29;20042;-15
2022/12/18 12:03:07;;;;;;;14.10;9.07;;;12.50;53.70;;;;;;4936481;29;20039;-15
2022/12/18 12:05:41;;;;;;;13.05;7.95;;;12.40;54.10;;;;;;4936905;29;20118;-15
2022/12/18 12:08:51;;;;;;;14.25;8.35;;;12.30;54.30;;;;;;4936688;29;20060;-13
2022/12/18 12:11:35;;;;;;;12.70;8.10;;;12.20;54.20;;;;;;4936838;29;20096;-15
2022/12/18 12:14:37;;;;;;;13.35;7.97;;;12.30;54.80;;;;;;4936803;29;20503;-15
2022/12/18 12:17:08;;;;;;;12.18;7.63;;;12.40;54.20;;;;;;4936597;29;20046;-16
2022/12/18 12:19:55;;;;;;;13.02;7.55;;;12.60;55.40;;;;;;4936713;29;20060;-16
2022/12/18 12:22:21;;;;;;;11.52;6.95;;;12.80;53.70;;;;;;4936183;29;20134;-16
2022/12/18 12:25:05;;;;;;;13.02;7.55;;;12.90;53.90;;;;;;4936091;29;20473;-16
2022/12/18 12:28:00;;;;;;;;;;;13.00;51.40;;;;;;4937002;29;20046;-14
2022/12/18 12:30:42;;;;;;;11.57;7.60;;;13.10;52.20;;;;;;4900942;29;20378;-17
2022/12/18 12:33:33;;;;;;;12.00;7.47;;;13.30;54.30;;;;;;4936021;29;20082;-16
2022/12/18 12:36:27;;;;;;;11.30;7.05;;;13.50;53.40;;;;;;4936058;29;20389;-17
2022/12/18 12:39:00;;;;;;;;;;;13.70;52.70;;;;;;4936388;29;20027;-14
2022/12/18 12:44:23;;;;;;;10.95;7.07;;;13.90;52.40;;;;;;4936315;29;20050;-15
2022/12/18 12:46:52;;;;;;;11.63;7.38;;;13.90;52.40;;;;;;4935905;29;20117;-14
2022/12/18 12:49:26;;;;;;;11.70;7.28;;;13.90;49.40;;;;;;4936141;29;20057;-15
2022/12/18 12:52:26;;;;;;;12.02;7.65;;;14.00;50.40;;;;;;4935494;29;20464;-14
2022/12/18 12:54:53;;;;;;;12.50;7.93;;;14.20;49.00;;;;;;4935576;29;20487;-16
2022/12/18 12:57:38;;;;;;;12.60;8.10;;;14.30;51.20;;;;;;4935709;29;20487;-15
2022/12/18 13:00:16;;;;;;;11.90;6.90;;;14.40;49.00;;;;;;4936456;29;20079;-17
2022/12/18 13:02:45;;;;;;;10.85;6.18;;;14.40;51.20;;;;;;4935747;29;20384;-14
2022/12/18 13:05:27;;;;;;;11.40;6.95;;;14.50;50.70;;;;;;4935545;29;20034;-14
2022/12/18 13:08:03;;;;;;;11.20;6.82;;;14.70;50.30;;;;;;4935910;29;20032;-16
2022/12/18 13:10:41;;;;;;;14.30;8.32;;;14.80;49.90;;;;;;4934815;29;20035;-16
2022/12/18 13:13:12;;;;;;;11.82;7.00;;;14.70;47.50;;;;;;4935756;29;20104;-14
2022/12/18 13:15:46;;;;;;;9.70;6.18;;;14.70;49.60;;;;;;4935621;29;20432;-17